createdAt,value
2022-10-21T09:18:20.018Z,984.64
2022-10-21T09:19:19.852Z,984.68
2022-10-21T09:20:19.775Z,984.69
2022-10-21T09:21:19.701Z,984.76
2022-10-21T09:22:35.961Z,984.80
2022-10-21T09:23:19.599Z,984.79
2022-10-21T09:24:19.472Z,984.78
2022-10-21T09:25:19.496Z,984.82
2022-10-21T09:26:19.322Z,984.79
2022-10-21T09:27:26.888Z,984.86
2022-10-21T09:28:19.168Z,984.91
2022-10-21T09:29:19.095Z,984.90
2022-10-21T09:30:19.017Z,984.90
2022-10-21T09:31:18.941Z,984.88
2022-10-21T09:32:19.102Z,984.95
2022-10-21T09:33:18.789Z,984.90
2022-10-21T09:34:18.733Z,984.87
2022-10-21T09:35:18.637Z,984.91
2022-10-21T09:36:18.562Z,984.89
2022-10-21T09:37:18.494Z,984.85
2022-10-21T09:38:18.414Z,984.87
2022-10-21T09:39:18.334Z,984.89
2022-10-21T09:40:18.257Z,984.90
2022-10-21T09:41:18.204Z,984.87
2022-10-21T09:42:42.331Z,984.87
2022-10-21T09:43:18.035Z,984.85
2022-10-21T09:44:17.955Z,984.86
2022-10-21T09:45:17.881Z,984.87
2022-10-21T09:46:17.802Z,984.86
2022-10-21T09:47:17.727Z,984.89
2022-10-21T09:48:17.651Z,984.91
2022-10-21T09:49:47.636Z,984.90
2022-10-21T09:50:17.886Z,984.91
2022-10-21T09:51:17.424Z,984.93
2022-10-21T09:52:17.346Z,984.91
2022-10-21T09:53:18.254Z,984.87
2022-10-21T09:54:17.195Z,984.87
2022-10-21T09:55:17.119Z,984.87
2022-10-21T09:56:17.046Z,984.87
2022-10-21T09:57:16.967Z,984.91
2022-10-21T09:58:16.894Z,984.85
2022-10-21T09:59:16.817Z,984.88
2022-10-21T10:00:16.794Z,984.85
2022-10-21T10:01:16.667Z,984.87
2022-10-21T10:02:16.696Z,984.85
2022-10-21T10:03:16.511Z,984.80
2022-10-21T10:04:16.439Z,984.82
2022-10-21T10:05:16.362Z,984.79
2022-10-21T10:06:16.305Z,984.80
2022-10-21T10:07:16.209Z,984.83
2022-10-21T10:08:16.138Z,984.82
2022-10-21T10:09:16.060Z,984.78
2022-10-21T10:10:15.986Z,984.81
2022-10-21T10:11:15.912Z,984.80
2022-10-21T10:12:15.833Z,984.80
2022-10-21T10:13:15.760Z,984.77
2022-10-21T10:14:15.682Z,984.78
2022-10-21T10:15:15.605Z,984.80
2022-10-21T10:16:15.533Z,984.83
2022-10-21T10:17:15.453Z,984.84
2022-10-21T10:18:15.379Z,984.82
2022-10-21T10:19:15.309Z,984.86
2022-10-21T10:20:15.240Z,984.85
2022-10-21T10:21:15.150Z,984.78
2022-10-21T10:22:15.095Z,984.88
2022-10-21T10:23:15.001Z,984.84
2022-10-21T10:24:15.026Z,984.87
2022-10-21T10:25:14.848Z,984.93
2022-10-21T10:26:14.775Z,984.93
2022-10-21T10:27:14.701Z,984.93
2022-10-21T10:28:14.623Z,984.94
2022-10-21T10:29:14.547Z,984.95
2022-10-21T10:30:14.473Z,984.99
2022-10-21T10:31:14.402Z,985.00
2022-10-21T10:32:14.321Z,984.99
2022-10-21T10:33:14.243Z,984.99
2022-10-21T10:34:14.170Z,984.99
2022-10-21T10:35:14.091Z,985.02
2022-10-21T10:36:14.015Z,984.97
2022-10-21T10:37:13.958Z,984.96
2022-10-21T10:38:13.975Z,984.92
2022-10-21T10:39:13.787Z,984.98
2022-10-21T10:40:13.715Z,984.96
2022-10-21T10:41:13.636Z,985.07
2022-10-21T10:42:13.563Z,985.02
2022-10-21T10:43:13.482Z,985.08
2022-10-21T10:44:13.416Z,985.11
2022-10-21T10:45:13.344Z,985.18
2022-10-21T10:46:13.255Z,985.34
2022-10-21T10:47:13.178Z,985.36
2022-10-21T10:48:13.105Z,985.43
2022-10-21T10:49:13.023Z,985.40
2022-10-21T10:50:13.147Z,985.41
2022-10-21T10:51:12.871Z,985.41
2022-10-21T10:52:12.794Z,985.40
2022-10-21T10:53:12.716Z,985.44
2022-10-21T10:54:12.749Z,985.46
2022-10-21T10:55:12.564Z,985.43
2022-10-21T10:56:12.493Z,985.44
2022-10-21T10:57:12.409Z,985.40
2022-10-21T10:58:15.326Z,985.40
2022-10-21T10:59:12.254Z,985.32
2022-10-21T11:00:12.215Z,985.30
2022-10-21T11:01:12.170Z,985.42
2022-10-21T11:02:12.029Z,985.41
2022-10-21T11:03:11.946Z,985.42
2022-10-21T11:04:11.870Z,985.43
2022-10-21T11:05:11.794Z,985.41
2022-10-21T11:06:11.719Z,985.43
2022-10-21T11:07:11.642Z,985.46
2022-10-21T11:08:11.563Z,985.37
2022-10-21T11:09:11.597Z,985.42
2022-10-21T11:10:11.642Z,985.40
2022-10-21T11:11:11.334Z,985.44
2022-10-21T11:12:11.257Z,985.41
2022-10-21T11:13:11.182Z,985.41
2022-10-21T11:14:11.107Z,985.43
2022-10-21T11:15:11.030Z,985.47
2022-10-21T11:16:10.953Z,985.38
2022-10-21T11:17:10.877Z,985.44
2022-10-21T11:18:24.132Z,985.42
2022-10-21T11:19:10.725Z,985.43
2022-10-21T11:20:10.706Z,985.41
2022-10-21T12:20:23.715Z,985.44
2022-10-21T12:21:20.445Z,985.47
2022-10-21T12:22:20.373Z,985.50
2022-10-21T12:23:20.297Z,985.44
2022-10-21T12:24:20.223Z,985.56
2022-10-21T12:25:20.149Z,985.46
2022-10-21T12:26:20.075Z,985.57
2022-10-21T12:27:19.999Z,985.54
2022-10-21T12:31:30.604Z,985.52
2022-10-21T12:32:30.525Z,985.43
2022-10-21T12:33:30.552Z,985.43
2022-10-21T12:34:30.377Z,985.47
2022-10-21T12:35:30.503Z,985.41
2022-10-21T12:36:30.228Z,985.35
2022-10-21T12:37:30.158Z,985.34
2022-10-21T12:38:30.085Z,985.34
2022-10-21T12:39:30.010Z,985.35
2022-10-21T12:40:29.935Z,985.42
2022-10-21T12:41:29.861Z,985.41
2022-10-21T12:42:29.787Z,985.34
2022-10-21T12:43:29.715Z,985.33
2022-10-21T12:44:29.639Z,985.38
2022-10-21T12:45:29.568Z,985.41
2022-10-21T13:04:23.631Z,985.50
2022-10-21T13:05:23.536Z,985.50
2022-10-21T13:06:23.466Z,985.55
2022-10-21T13:07:23.391Z,985.53
2022-10-21T13:08:23.522Z,985.50
2022-10-21T13:09:23.289Z,985.62
2022-10-21T13:10:23.175Z,985.53
2022-10-21T13:11:23.101Z,985.51
2022-10-21T13:12:23.041Z,985.52
2022-10-21T13:13:23.764Z,985.52
2022-10-21T13:14:22.890Z,985.53
2022-10-21T13:15:22.861Z,985.56
2022-10-21T13:16:22.739Z,985.49
2022-10-21T13:17:22.671Z,985.49
2022-10-21T13:18:22.630Z,985.43
2022-10-21T13:19:22.519Z,985.45
2022-10-21T13:20:22.464Z,985.43
2022-10-21T13:21:22.374Z,985.42
2022-10-21T13:22:22.302Z,985.38
2022-10-21T13:23:22.232Z,985.36
2022-10-21T13:24:22.156Z,985.48
2022-10-21T13:25:22.081Z,985.47
2022-10-21T13:26:22.007Z,985.50
2022-10-21T13:27:21.961Z,985.54
2022-10-21T13:28:21.862Z,985.53
2022-10-21T13:29:21.794Z,985.48
2022-10-21T13:30:21.716Z,985.56
2022-10-21T13:31:21.640Z,985.43
2022-10-21T13:32:21.566Z,985.47
2022-10-21T13:33:21.493Z,985.42
2022-10-21T13:34:21.523Z,985.42
2022-10-21T13:35:21.346Z,985.42
2022-10-21T13:36:21.293Z,985.41
2022-10-21T13:37:21.200Z,985.44
2022-10-21T13:38:21.132Z,985.43
2022-10-21T13:39:21.052Z,985.42
2022-10-21T13:40:20.980Z,985.46
2022-10-21T13:41:20.907Z,985.51
2022-10-21T13:42:24.144Z,985.47
2022-10-21T13:43:20.759Z,985.46
2022-10-21T13:44:20.688Z,985.44
2022-10-21T13:45:20.611Z,985.45
2022-10-21T13:46:20.539Z,985.41
2022-10-21T13:47:20.465Z,985.39
2022-10-21T13:48:20.393Z,985.43
2022-10-21T13:49:20.319Z,985.39
2022-10-21T13:50:20.243Z,985.44
2022-10-21T13:51:20.172Z,985.40
2022-10-21T13:52:20.116Z,985.42
2022-10-21T13:53:20.022Z,985.42
2022-10-21T13:54:19.948Z,985.38
2022-10-21T13:55:19.875Z,985.34
2022-10-21T13:56:19.804Z,985.37
2022-10-21T13:57:19.728Z,985.44
2022-10-21T13:58:19.655Z,985.39
2022-10-21T13:59:19.580Z,985.42
2022-10-21T14:00:19.607Z,985.44
2022-10-21T14:01:19.438Z,985.49
2022-10-21T14:02:19.359Z,985.50
2022-10-21T14:03:19.333Z,985.54
2022-10-21T14:04:19.210Z,985.51
2022-10-21T14:05:19.136Z,985.55
2022-10-21T14:06:19.061Z,985.49
2022-10-21T14:07:18.985Z,985.46
2022-10-21T14:08:18.931Z,985.44
2022-10-21T14:09:18.884Z,985.39
2022-10-21T14:10:18.764Z,985.44
2022-10-21T14:11:18.749Z,985.45
2022-10-21T14:12:18.612Z,985.48
2022-10-21T14:17:21.709Z,985.38
2022-10-21T14:18:24.457Z,985.39
2022-10-21T14:19:21.557Z,985.35
2022-10-21T15:50:47.692Z,984.92
2022-10-21T15:51:47.593Z,984.95
2022-10-21T15:52:47.573Z,985.02
2022-10-21T15:53:47.445Z,985.05
2022-10-21T15:54:47.368Z,985.04
2022-10-21T15:55:47.291Z,985.05
2022-10-21T15:56:47.216Z,985.00
2022-10-21T15:57:47.142Z,985.02
2022-10-21T15:58:47.067Z,985.06
2022-10-21T15:59:46.990Z,985.07
2022-10-21T16:00:46.984Z,985.03
2022-10-21T16:01:46.838Z,985.09
2022-10-21T16:36:18.668Z,984.98
2022-10-21T16:37:18.556Z,984.98
2022-10-21T16:39:21.027Z,984.96
2022-10-21T16:40:18.328Z,984.92
2022-10-21T16:41:18.251Z,984.94
2022-10-21T16:42:18.176Z,984.95
2022-10-21T16:43:18.097Z,984.94
2022-10-21T16:44:18.023Z,984.87
2022-10-21T16:45:17.947Z,984.89
2022-10-21T16:46:21.243Z,984.88
2022-10-21T16:47:17.834Z,984.89
2022-10-21T16:48:17.719Z,984.88
2022-10-21T16:49:17.641Z,984.86
2022-10-21T16:50:17.719Z,984.87
2022-10-21T16:51:17.491Z,984.91
2022-10-21T16:52:17.435Z,984.93
2022-10-21T16:53:17.335Z,984.98
2022-10-21T16:54:17.259Z,985.00
2022-10-21T16:55:17.182Z,985.03
2022-10-21T16:56:17.147Z,985.01
2022-10-21T16:57:17.031Z,985.04
2022-10-21T16:58:16.952Z,985.03
2022-10-21T16:59:16.877Z,985.07
2022-10-21T17:00:16.798Z,985.12
2022-10-21T17:01:16.796Z,985.12
2022-10-21T17:02:16.646Z,985.16
2022-10-21T17:03:16.570Z,985.17
2022-10-21T17:04:16.493Z,985.24
2022-10-21T17:05:16.416Z,985.26
2022-10-21T17:06:16.340Z,985.23
2022-10-21T17:07:16.263Z,985.28
2022-10-21T17:08:16.209Z,985.24
2022-10-21T17:09:16.185Z,985.26
2022-10-21T17:10:16.183Z,985.23
2022-10-21T17:11:15.957Z,985.27
2022-10-21T17:12:15.882Z,985.31
2022-10-21T17:13:15.802Z,985.30
2022-10-21T17:14:15.766Z,985.35
2022-10-21T17:15:15.657Z,985.27
2022-10-21T17:16:15.580Z,985.30
2022-10-21T17:17:15.496Z,985.27
2022-10-21T17:18:15.860Z,985.29
2022-10-21T17:19:15.347Z,985.33
2022-10-21T17:20:15.271Z,985.35
2022-10-21T17:21:15.192Z,985.43
2022-10-21T17:22:15.113Z,985.40
2022-10-21T17:23:15.038Z,985.47
2022-10-21T17:24:14.985Z,985.56
2022-10-21T17:25:14.883Z,985.54
2022-10-21T17:26:14.807Z,985.54
2022-10-21T17:27:17.308Z,985.50
2022-10-21T17:28:14.654Z,985.48
2022-10-21T17:29:14.578Z,985.45
2022-10-21T17:30:14.501Z,985.45
2022-10-21T17:31:14.423Z,985.43
2022-10-21T17:32:14.348Z,985.40
2022-10-21T17:33:14.463Z,985.37
2022-10-21T17:34:14.195Z,985.37
2022-10-21T17:35:14.116Z,985.36
2022-10-21T17:36:14.041Z,985.34
2022-10-21T17:37:13.964Z,985.36
2022-10-21T17:38:13.988Z,985.38
2022-10-21T17:39:13.811Z,985.42
2022-10-21T17:40:13.754Z,985.47
2022-10-21T17:41:13.656Z,985.48
2022-10-21T17:42:13.580Z,985.55
2022-10-21T17:43:13.508Z,985.51
2022-10-21T17:44:13.428Z,985.58
2022-10-21T17:45:13.351Z,985.52
2022-10-21T17:46:13.271Z,985.53
2022-10-21T17:47:13.246Z,985.51
2022-10-21T17:48:13.121Z,985.51
2022-10-21T17:49:13.041Z,985.55
2022-10-21T19:03:13.968Z,985.25
2022-10-21T19:52:26.542Z,985.64
2022-10-21T19:53:30.130Z,985.67
2022-10-21T19:54:26.369Z,985.72
2022-10-21T19:55:26.289Z,985.69
2022-10-21T19:56:29.580Z,985.71
2022-10-21T19:57:26.136Z,985.70
2022-10-21T19:58:26.059Z,985.62
2022-10-21T19:59:25.980Z,985.67
2022-10-21T20:00:25.906Z,985.73
2022-10-21T20:01:25.909Z,985.72
2022-10-21T20:02:25.749Z,985.77
2022-10-21T20:03:25.671Z,985.75
2022-10-21T20:04:25.597Z,985.73
2022-10-21T20:05:25.540Z,985.74
2022-10-21T20:06:25.459Z,985.81
2022-10-21T22:17:59.338Z,985.78
2022-10-21T22:18:59.880Z,985.81
2022-10-21T22:19:59.162Z,985.78
2022-10-21T22:20:59.081Z,985.76
2022-10-21T22:21:59.006Z,985.77
2022-10-21T22:22:58.929Z,985.72
2022-10-21T22:23:58.854Z,985.72
2022-10-21T22:24:58.776Z,985.71
2022-10-21T22:25:58.701Z,985.69
2022-10-21T22:26:58.622Z,985.72
2022-10-21T22:27:58.544Z,985.70
2022-10-21T22:28:58.469Z,985.70
2022-10-21T22:29:58.392Z,985.63
2022-10-21T22:30:58.317Z,985.60
2022-10-21T22:31:58.239Z,985.58
2022-10-21T22:32:58.161Z,985.60
2022-10-21T22:33:58.255Z,985.63
2022-10-21T22:34:58.007Z,985.62
2022-10-21T22:35:57.967Z,985.62
2022-10-21T22:36:57.855Z,985.61
2022-10-21T22:37:57.780Z,985.58
2022-10-21T22:38:57.708Z,985.52
2022-10-21T22:39:57.625Z,985.58
2022-10-21T22:40:57.549Z,985.56
2022-10-21T22:41:57.471Z,985.60
2022-10-21T22:42:57.393Z,985.58
2022-10-21T22:43:57.325Z,985.61
2022-10-21T22:44:57.240Z,985.58
2022-10-21T22:46:05.002Z,985.54
2022-10-21T22:46:57.087Z,985.50
2022-10-21T22:47:57.011Z,985.42
2022-10-21T22:48:57.131Z,985.38
2022-10-21T22:49:56.878Z,985.39
2022-10-21T22:50:56.780Z,985.36
2022-10-21T22:51:56.703Z,985.39
2022-10-21T22:52:56.627Z,985.41
2022-10-21T22:53:56.944Z,985.45
2022-10-21T22:54:56.472Z,985.52
2022-10-21T22:55:56.397Z,985.56
2022-10-21T22:56:56.319Z,985.58
2022-10-21T22:57:56.243Z,985.59
2022-10-21T22:58:56.166Z,985.55
2022-10-21T22:59:56.092Z,985.53
2022-10-21T23:01:55.937Z,985.48
2022-10-21T23:02:55.860Z,985.50
2022-10-21T23:03:55.783Z,985.53
2022-10-21T23:04:55.704Z,985.55
2022-10-21T23:05:55.651Z,985.52
2022-10-21T23:06:55.555Z,985.54
2022-10-21T23:07:55.482Z,985.55
2022-10-21T23:08:55.455Z,985.59
2022-10-21T23:09:55.400Z,985.50
2022-10-21T23:10:55.496Z,985.51
2022-10-21T23:11:55.171Z,985.56
2022-10-21T23:12:55.092Z,985.50
2022-10-21T23:14:02.767Z,985.57
2022-10-21T23:14:55.039Z,985.60
2022-10-21T23:15:54.862Z,985.59
2022-10-21T23:16:54.786Z,985.60
2022-10-21T23:17:54.711Z,985.61
2022-10-21T23:18:54.644Z,985.56
2022-10-21T23:19:54.556Z,985.60
2022-10-21T23:20:54.477Z,985.54
2022-10-21T23:21:54.419Z,985.50
2022-10-21T23:22:54.324Z,985.59
2022-10-21T23:23:54.248Z,985.59
2022-10-21T23:24:54.171Z,985.54
2022-10-21T23:25:54.101Z,985.55
2022-10-21T23:26:57.711Z,985.53
2022-10-21T23:27:53.947Z,985.57
2022-10-21T23:28:53.863Z,985.54
2022-10-21T23:29:53.790Z,985.50
2022-10-21T23:30:53.711Z,985.59
2022-10-21T23:31:53.637Z,985.57
2022-10-21T23:32:53.556Z,985.62
2022-10-21T23:33:53.480Z,985.70
2022-10-21T23:34:53.401Z,985.76
2022-10-21T23:35:53.325Z,985.78
2022-10-21T23:36:53.251Z,985.85
2022-10-21T23:37:53.193Z,985.94
2022-10-21T23:38:53.096Z,985.96
2022-10-21T23:39:53.019Z,986.03
2022-10-21T23:40:52.941Z,986.02
2022-10-21T23:41:52.864Z,986.02
2022-10-21T23:42:52.790Z,985.98
2022-10-21T23:43:52.713Z,986.01
2022-10-21T23:44:52.635Z,986.07
2022-10-21T23:45:52.561Z,986.12
2022-10-21T23:46:52.480Z,986.10
2022-10-21T23:47:52.405Z,986.12
2022-10-21T23:48:52.327Z,986.21
2022-10-21T23:49:52.251Z,986.26
2022-10-21T23:51:34.656Z,986.24
2022-10-21T23:52:34.579Z,986.26
2022-10-21T23:53:34.521Z,986.31
2022-10-21T23:54:34.423Z,986.30
2022-10-21T23:55:34.354Z,986.24
2022-10-21T23:56:34.877Z,986.34
